createdAt,value
2023-04-16T00:02:17.553Z,18.80
2023-04-16T00:04:44.985Z,21.47
2023-04-16T00:07:12.303Z,22.80
2023-04-16T00:09:39.648Z,24.90
2023-04-16T00:12:06.985Z,24.17
2023-04-16T00:14:34.268Z,17.33
2023-04-16T00:17:01.514Z,20.27
2023-04-16T00:19:28.936Z,23.63
2023-04-16T00:21:56.416Z,19.53
2023-04-16T00:24:23.671Z,20.73
2023-04-16T00:26:50.821Z,21.10
2023-04-16T00:29:18.016Z,27.00
2023-04-16T00:31:45.537Z,24.83
2023-04-16T00:34:12.765Z,20.67
2023-04-16T00:36:40.033Z,20.70
2023-04-16T00:39:09.985Z,26.47
2023-04-16T00:41:38.876Z,39.83
2023-04-16T00:44:06.411Z,28.63
2023-04-16T00:46:35.015Z,29.13
2023-04-16T00:49:03.441Z,32.33
2023-04-16T00:51:31.604Z,29.43
2023-04-16T00:53:58.765Z,35.60
2023-04-16T00:56:26.730Z,28.70
2023-04-16T00:58:55.520Z,38.97
2023-04-16T01:01:22.764Z,53.30
2023-04-16T01:03:50.359Z,41.23
2023-04-16T01:06:18.225Z,42.03
2023-04-16T01:08:45.741Z,36.97
2023-04-16T01:11:13.048Z,40.77
2023-04-16T01:13:40.302Z,36.97
2023-04-16T01:16:08.700Z,35.70
2023-04-16T01:18:36.575Z,32.10
2023-04-16T01:21:04.194Z,37.43
2023-04-16T01:23:31.655Z,37.50
2023-04-16T01:25:58.887Z,34.50
2023-04-16T01:28:26.109Z,30.70
2023-04-16T01:30:53.430Z,26.27
2023-04-16T01:33:21.846Z,34.53
2023-04-16T01:35:49.081Z,37.80
2023-04-16T01:38:16.521Z,38.20
2023-04-16T01:40:43.939Z,45.13
2023-04-16T01:43:11.230Z,37.67
2023-04-16T01:45:38.590Z,29.63
2023-04-16T01:48:05.997Z,42.17
2023-04-16T01:50:33.203Z,35.70
2023-04-16T01:53:02.055Z,37.20
2023-04-16T01:55:29.291Z,32.00
2023-04-16T01:57:56.454Z,49.23
2023-04-16T02:00:23.592Z,35.43
2023-04-16T02:02:51.167Z,42.57
2023-04-16T02:05:18.504Z,47.67
2023-04-16T02:07:46.034Z,33.47
2023-04-16T02:10:13.239Z,45.60
2023-04-16T02:12:40.401Z,47.13
2023-04-16T02:15:07.858Z,47.17
2023-04-16T02:17:35.082Z,47.47
2023-04-16T02:20:05.619Z,44.10
2023-04-16T02:22:32.807Z,49.37
2023-04-16T02:24:59.922Z,59.83
2023-04-16T02:27:27.215Z,51.57
2023-04-16T02:29:54.450Z,70.63
2023-04-16T02:32:22.331Z,54.37
2023-04-16T02:34:49.526Z,52.83
2023-04-16T02:37:16.705Z,63.53
2023-04-16T02:39:44.148Z,55.87
2023-04-16T02:42:11.275Z,53.40
2023-04-16T02:44:38.600Z,59.97
2023-04-16T02:47:05.703Z,46.50
2023-04-16T02:49:32.899Z,54.87
2023-04-16T02:52:00.064Z,58.57
2023-04-16T02:54:27.204Z,60.57
2023-04-16T02:56:54.348Z,68.63
2023-04-16T02:59:21.457Z,59.27
2023-04-16T03:01:48.774Z,65.00
2023-04-16T03:04:16.382Z,64.40
2023-04-16T03:06:43.579Z,68.10
2023-04-16T03:09:10.980Z,47.27
2023-04-16T03:11:38.370Z,49.10
2023-04-16T03:14:05.515Z,54.00
2023-04-16T03:16:33.823Z,53.43
2023-04-16T03:19:01.245Z,58.80
2023-04-16T03:21:28.429Z,58.33
2023-04-16T03:23:56.094Z,57.30
2023-04-16T03:26:23.299Z,62.30
2023-04-16T03:28:50.523Z,59.73
2023-04-16T03:31:17.694Z,54.10
2023-04-16T03:33:44.972Z,49.63
2023-04-16T03:36:12.139Z,60.90
2023-04-16T03:38:39.378Z,61.13
2023-04-16T03:41:06.681Z,61.23
2023-04-16T03:43:33.969Z,62.27
2023-04-16T03:46:01.256Z,58.03
2023-04-16T03:48:28.439Z,55.80
2023-04-16T03:50:55.593Z,58.57
2023-04-16T03:53:22.784Z,57.83
2023-04-16T03:55:51.484Z,43.53
2023-04-16T03:58:19.091Z,50.17
2023-04-16T04:00:46.436Z,39.17
2023-04-16T04:03:17.338Z,39.87
2023-04-16T04:05:44.711Z,58.97
2023-04-16T04:08:12.124Z,52.03
2023-04-16T04:10:39.356Z,56.60
2023-04-16T04:13:07.544Z,62.93
2023-04-16T04:15:34.755Z,66.90
2023-04-16T04:18:01.960Z,77.60
2023-04-16T04:20:29.154Z,79.23
2023-04-16T04:22:56.334Z,68.53
2023-04-16T04:25:23.564Z,76.97
2023-04-16T04:27:50.880Z,75.60
2023-04-16T04:30:18.093Z,74.47
2023-04-16T04:32:45.537Z,69.37
2023-04-16T04:35:12.707Z,70.30
2023-04-16T04:37:40.212Z,61.50
2023-04-16T04:40:07.842Z,77.47
2023-04-16T04:42:35.118Z,70.33
2023-04-16T04:45:02.262Z,88.47
2023-04-16T04:47:29.449Z,77.80
2023-04-16T04:49:56.674Z,60.97
2023-04-16T04:52:23.843Z,62.97
2023-04-16T04:54:51.336Z,53.33
2023-04-16T04:57:18.481Z,51.63
2023-04-16T04:59:45.731Z,57.23
2023-04-16T05:02:12.923Z,48.87
2023-04-16T05:04:40.373Z,58.13
2023-04-16T05:07:07.749Z,54.60
2023-04-16T05:09:34.910Z,50.73
2023-04-16T05:12:02.082Z,46.47
2023-04-16T05:14:29.211Z,47.27
2023-04-16T05:16:56.563Z,55.00
2023-04-16T05:19:23.837Z,63.40
2023-04-16T05:21:51.049Z,63.20
2023-04-16T05:24:18.414Z,51.70
2023-04-16T05:26:45.601Z,47.87
2023-04-16T05:29:12.913Z,45.67
2023-04-16T05:31:40.279Z,47.47
2023-04-16T05:34:07.570Z,46.70
2023-04-16T05:36:34.764Z,39.40
2023-04-16T05:39:01.935Z,40.27
2023-04-16T05:41:29.287Z,39.60
2023-04-16T05:43:56.433Z,43.90
2023-04-16T05:46:23.683Z,42.37
2023-04-16T05:48:50.888Z,42.63
2023-04-16T05:51:18.195Z,44.17
2023-04-16T05:53:45.657Z,49.03
2023-04-16T05:56:12.873Z,43.37
2023-04-16T05:58:40.293Z,41.17
2023-04-16T06:01:07.729Z,51.90
2023-04-16T06:03:35.049Z,40.53
2023-04-16T06:06:02.411Z,45.97
2023-04-16T06:08:29.698Z,45.07
2023-04-16T06:10:56.934Z,43.90
2023-04-16T06:13:24.168Z,47.23
2023-04-16T06:15:51.354Z,47.63
2023-04-16T06:18:18.598Z,50.33
2023-04-16T06:20:45.957Z,43.00
2023-04-16T06:23:13.085Z,48.47
2023-04-16T06:25:40.688Z,43.77
2023-04-16T06:28:08.135Z,38.70
2023-04-16T06:30:35.395Z,35.53
2023-04-16T06:33:02.778Z,45.87
2023-04-16T06:35:29.957Z,41.47
2023-04-16T06:37:57.246Z,36.77
2023-04-16T06:40:24.627Z,36.23
2023-04-16T06:42:51.822Z,38.30
2023-04-16T06:45:19.059Z,37.73
2023-04-16T06:47:46.351Z,30.67
2023-04-16T06:50:13.584Z,40.77
2023-04-16T06:52:41.238Z,36.17
2023-04-16T06:55:09.816Z,33.90
2023-04-16T06:57:37.806Z,27.83
2023-04-16T07:00:05.340Z,34.63
2023-04-16T07:02:32.661Z,33.20
2023-04-16T07:05:00.150Z,39.37
2023-04-16T07:07:27.400Z,29.97
2023-04-16T07:09:54.563Z,33.13
2023-04-16T07:12:22.765Z,36.73
2023-04-16T07:14:50.296Z,29.17
2023-04-16T07:17:18.335Z,37.77
2023-04-16T07:19:45.736Z,37.10
2023-04-16T07:22:13.012Z,38.67
2023-04-16T07:24:40.459Z,36.00
2023-04-16T07:27:07.840Z,35.60
2023-04-16T07:29:35.043Z,39.20
2023-04-16T07:32:02.324Z,30.57
2023-04-16T07:34:29.585Z,41.50
2023-04-16T07:36:56.876Z,35.57
2023-04-16T07:39:24.209Z,33.37
2023-04-16T07:41:51.414Z,36.73
2023-04-16T07:44:18.603Z,33.30
2023-04-16T07:46:47.633Z,28.40
2023-04-16T07:49:15.358Z,33.10
2023-04-16T07:51:42.591Z,33.40
2023-04-16T07:54:09.852Z,36.40
2023-04-16T07:56:37.901Z,35.50
2023-04-16T07:59:18.425Z,31.20
2023-04-16T08:01:49.724Z,39.10
2023-04-16T08:04:23.025Z,30.47
2023-04-16T08:06:51.418Z,31.80
2023-04-16T08:09:19.578Z,28.50
2023-04-16T08:11:46.969Z,26.77
2023-04-16T08:14:14.141Z,28.00
2023-04-16T08:16:41.911Z,35.97
2023-04-16T08:19:09.664Z,28.70
2023-04-16T08:21:37.225Z,29.27
2023-04-16T08:24:04.494Z,29.03
2023-04-16T08:26:31.697Z,31.87
2023-04-16T08:28:58.816Z,28.60
2023-04-16T08:31:26.135Z,26.03
2023-04-16T08:33:53.313Z,29.27
2023-04-16T08:36:20.816Z,29.70
2023-04-16T08:38:48.006Z,28.57
2023-04-16T08:41:15.412Z,29.73
2023-04-16T08:43:44.752Z,32.03
2023-04-16T08:46:12.685Z,28.70
2023-04-16T08:48:41.781Z,29.27
2023-04-16T08:51:10.463Z,26.30
2023-04-16T08:53:43.967Z,25.30
2023-04-16T08:56:12.508Z,28.97
2023-04-16T08:58:40.292Z,25.23
2023-04-16T09:01:07.858Z,27.77
2023-04-16T09:03:36.695Z,29.73
2023-04-16T09:06:05.129Z,27.40
2023-04-16T09:08:32.819Z,30.13
2023-04-16T09:11:00.503Z,31.70
2023-04-16T09:13:27.783Z,25.10
2023-04-16T09:15:57.215Z,27.10
2023-04-16T09:18:25.012Z,26.20
2023-04-16T09:20:52.525Z,25.00
2023-04-16T09:23:19.707Z,27.87
2023-04-16T09:25:46.884Z,26.27
2023-04-16T09:28:14.113Z,26.50
2023-04-16T09:30:41.376Z,24.23
2023-04-16T09:33:16.662Z,24.27
2023-04-16T09:35:47.688Z,24.00
2023-04-16T09:38:15.093Z,21.60
2023-04-16T09:40:42.300Z,22.43
2023-04-16T09:43:13.402Z,41.17
2023-04-16T09:45:53.833Z,20.83
2023-04-16T09:48:31.121Z,20.40
2023-04-16T09:50:59.014Z,24.20
2023-04-16T09:53:26.945Z,22.73
2023-04-16T09:55:57.126Z,25.33
2023-04-16T09:58:24.764Z,18.03
2023-04-16T10:01:06.253Z,18.57
2023-04-16T10:03:34.482Z,17.53
2023-04-16T10:06:11.720Z,19.63
2023-04-16T10:08:43.547Z,18.07
2023-04-16T10:11:11.324Z,21.27
2023-04-16T10:13:38.793Z,20.70
2023-04-16T10:16:06.209Z,21.80
2023-04-16T10:18:34.612Z,22.77
2023-04-16T10:21:02.625Z,23.43
2023-04-16T10:23:29.829Z,21.37
2023-04-16T10:25:59.055Z,20.20
2023-04-16T10:28:27.139Z,21.95
2023-04-16T10:30:56.894Z,19.17
2023-04-16T10:33:28.700Z,20.67
2023-04-16T10:36:09.952Z,20.20
2023-04-16T10:38:40.686Z,22.27
2023-04-16T10:41:11.140Z,20.33
2023-04-16T10:43:46.220Z,17.33
2023-04-16T10:46:26.982Z,18.88
2023-04-16T10:48:55.296Z,18.00
2023-04-16T10:51:32.257Z,20.92
2023-04-16T10:54:04.275Z,20.25
2023-04-16T10:56:35.092Z,18.17
2023-04-16T10:59:05.044Z,17.92
2023-04-16T11:01:42.463Z,20.98
2023-04-16T11:04:21.677Z,20.13
2023-04-16T11:07:11.572Z,17.05
2023-04-16T11:10:08.654Z,15.50
2023-04-16T11:12:40.601Z,16.33
2023-04-16T11:15:15.305Z,16.73
2023-04-16T11:17:51.917Z,16.45
2023-04-16T11:20:28.636Z,17.10
2023-04-16T11:22:57.308Z,21.98
2023-04-16T11:25:34.207Z,20.95
2023-04-16T11:28:02.644Z,19.92
2023-04-16T11:30:37.776Z,18.60
2023-04-16T11:33:05.871Z,23.05
2023-04-16T11:35:32.758Z,22.17
2023-04-16T11:37:59.701Z,16.15
2023-04-16T11:40:30.925Z,33.67
2023-04-16T11:43:22.006Z,21.50
2023-04-16T11:45:59.963Z,15.90
2023-04-16T11:48:45.868Z,13.93
2023-04-16T11:51:12.966Z,15.05
2023-04-16T11:53:54.099Z,19.35
2023-04-16T11:56:32.306Z,15.30
2023-04-16T11:59:11.739Z,16.40
2023-04-16T12:01:41.603Z,15.25
2023-04-16T12:04:09.677Z,14.70
2023-04-16T12:06:36.872Z,15.75
2023-04-16T12:09:25.013Z,15.68
2023-04-16T12:11:51.892Z,13.93
2023-04-16T12:14:19.054Z,14.57
2023-04-16T12:16:46.166Z,13.50
2023-04-16T12:19:13.508Z,12.65
2023-04-16T12:21:41.400Z,12.88
2023-04-16T12:24:10.602Z,13.00
2023-04-16T12:26:48.792Z,13.25
2023-04-16T12:29:21.640Z,14.27
2023-04-16T12:31:52.895Z,13.85
2023-04-16T12:34:21.193Z,14.13
2023-04-16T12:37:10.634Z,14.88
2023-04-16T12:39:37.899Z,16.27
2023-04-16T12:42:06.412Z,15.40
2023-04-16T12:44:34.101Z,15.95
2023-04-16T12:47:01.144Z,15.80
2023-04-16T12:49:28.065Z,15.90
2023-04-16T12:51:55.008Z,15.13
2023-04-16T12:54:21.991Z,16.48
2023-04-16T12:56:48.972Z,17.52
2023-04-16T12:59:17.459Z,20.60
2023-04-16T13:01:44.410Z,18.08
2023-04-16T13:04:19.138Z,16.13
2023-04-16T13:06:46.420Z,16.17
2023-04-16T13:09:13.308Z,18.73
2023-04-16T13:11:40.168Z,16.05
2023-04-16T13:14:07.222Z,16.35
2023-04-16T13:16:34.163Z,17.67
2023-04-16T13:19:01.732Z,18.38
2023-04-16T13:21:28.556Z,18.45
2023-04-16T13:23:55.849Z,18.05
2023-04-16T13:26:22.783Z,15.98
2023-04-16T13:28:49.705Z,18.77
2023-04-16T13:31:19.858Z,16.27
2023-04-16T13:33:47.143Z,16.80
2023-04-16T13:36:14.537Z,17.57
2023-04-16T13:38:42.230Z,18.13
2023-04-16T13:41:09.059Z,17.38
2023-04-16T13:43:36.955Z,16.67
2023-04-16T13:46:03.831Z,17.42
2023-04-16T13:48:30.964Z,18.95
2023-04-16T13:50:57.908Z,16.95
2023-04-16T13:53:24.976Z,18.30
2023-04-16T13:55:52.061Z,19.27
2023-04-16T13:58:18.987Z,19.70
2023-04-16T14:00:46.420Z,17.33
2023-04-16T14:03:13.598Z,17.35
2023-04-16T14:05:41.356Z,17.98
2023-04-16T14:08:08.391Z,18.42
2023-04-16T14:10:35.502Z,16.38
2023-04-16T14:13:02.412Z,17.05
2023-04-16T14:15:30.044Z,16.52
2023-04-16T14:17:57.056Z,21.05
2023-04-16T14:20:24.082Z,16.73
2023-04-16T14:22:51.387Z,16.73
2023-04-16T14:25:18.554Z,17.65
2023-04-16T14:27:45.655Z,16.67
2023-04-16T14:30:12.716Z,14.95
2023-04-16T14:32:39.799Z,15.38
2023-04-16T14:35:07.048Z,15.32
2023-04-16T14:37:35.921Z,18.30
2023-04-16T14:40:07.967Z,14.85
2023-04-16T14:42:36.723Z,15.95
2023-04-16T14:45:06.547Z,17.48
2023-04-16T14:47:37.883Z,16.45
2023-04-16T14:50:05.590Z,16.88
2023-04-16T14:52:32.750Z,16.40
2023-04-16T14:54:59.830Z,16.02
2023-04-16T14:57:26.781Z,15.77
2023-04-16T14:59:53.621Z,16.33
2023-04-16T15:02:20.654Z,15.77
2023-04-16T15:04:47.486Z,18.88
2023-04-16T15:07:14.377Z,14.55
2023-04-16T15:09:41.351Z,14.15
2023-04-16T15:12:11.024Z,17.05
2023-04-16T15:14:38.018Z,14.13
2023-04-16T15:17:04.948Z,14.30
2023-04-16T15:19:31.818Z,14.35
2023-04-16T15:21:59.016Z,14.25
2023-04-16T15:24:26.298Z,12.73
2023-04-16T15:26:53.520Z,14.65
2023-04-16T15:29:20.842Z,13.13
2023-04-16T15:31:48.397Z,13.80
2023-04-16T15:34:15.824Z,16.20
2023-04-16T15:36:43.166Z,13.02
2023-04-16T15:39:11.097Z,14.10
2023-04-16T15:41:53.327Z,13.80
2023-04-16T15:44:26.561Z,13.60
2023-04-16T15:46:53.691Z,15.63
2023-04-16T15:49:20.914Z,14.18
2023-04-16T15:51:48.202Z,14.63
2023-04-16T15:54:15.474Z,13.90
2023-04-16T15:56:42.707Z,14.52
2023-04-16T15:59:10.214Z,14.70
2023-04-16T16:01:37.816Z,14.95
2023-04-16T16:04:05.313Z,18.63
2023-04-16T16:06:32.722Z,25.85
2023-04-16T16:09:00.453Z,24.30
2023-04-16T16:11:28.373Z,22.05
2023-04-16T16:13:55.742Z,22.45
2023-04-16T16:16:22.982Z,27.10
2023-04-16T16:18:50.138Z,20.87
2023-04-16T16:21:17.483Z,24.63
2023-04-16T16:23:44.770Z,24.58
2023-04-16T16:26:12.393Z,23.05
2023-04-16T16:28:41.039Z,30.53
2023-04-16T16:31:09.026Z,25.43
2023-04-16T16:33:37.373Z,21.63
2023-04-16T16:36:10.256Z,22.67
2023-04-16T16:38:38.115Z,25.87
2023-04-16T16:41:05.673Z,24.43
2023-04-16T16:43:32.962Z,26.20
2023-04-16T16:46:00.366Z,24.43
2023-04-16T16:48:27.537Z,28.10
2023-04-16T16:50:55.099Z,40.23
2023-04-16T16:53:22.224Z,28.37
2023-04-16T16:55:49.392Z,33.53
2023-04-16T16:58:16.590Z,34.87
2023-04-16T17:00:43.801Z,30.70
2023-04-16T17:03:11.415Z,32.73
2023-04-16T17:05:39.342Z,34.23
2023-04-16T17:08:06.719Z,28.20
2023-04-16T17:10:33.885Z,27.70
2023-04-16T17:13:01.121Z,38.27
2023-04-16T17:15:28.361Z,32.50
2023-04-16T17:17:55.874Z,40.43
2023-04-16T17:20:23.371Z,41.40
2023-04-16T17:22:51.223Z,41.63
2023-04-16T17:25:18.448Z,35.43
2023-04-16T17:27:45.869Z,27.67
2023-04-16T17:30:13.231Z,34.90
2023-04-16T17:32:41.848Z,32.20
2023-04-16T17:35:10.688Z,33.57
2023-04-16T17:37:38.164Z,35.43
2023-04-16T17:40:07.739Z,32.67
2023-04-16T17:42:35.528Z,38.70
2023-04-16T17:45:03.112Z,34.07
2023-04-16T17:47:30.288Z,37.40
2023-04-16T17:49:57.482Z,37.77
2023-04-16T17:52:24.651Z,30.33
2023-04-16T17:54:53.204Z,34.30
2023-04-16T17:57:20.491Z,39.93
2023-04-16T17:59:47.790Z,34.00
2023-04-16T18:02:15.097Z,39.77
2023-04-16T18:04:42.466Z,31.07
2023-04-16T18:07:09.950Z,32.27
2023-04-16T18:09:37.552Z,31.23
2023-04-16T18:12:04.878Z,29.60
2023-04-16T18:14:32.059Z,34.67
2023-04-16T18:16:59.839Z,26.40
2023-04-16T18:19:27.064Z,26.00
2023-04-16T18:21:54.225Z,23.87
2023-04-16T18:24:21.660Z,33.77
2023-04-16T18:26:48.837Z,26.03
2023-04-16T18:29:17.838Z,21.47
2023-04-16T18:31:45.569Z,27.00
2023-04-16T18:34:12.922Z,32.93
2023-04-16T18:36:40.373Z,26.07
2023-04-16T18:39:08.655Z,26.17
2023-04-16T18:41:37.591Z,31.90
2023-04-16T18:44:04.831Z,25.57
2023-04-16T18:46:32.006Z,25.00
2023-04-16T18:48:59.457Z,26.13
2023-04-16T18:51:27.301Z,24.90
2023-04-16T18:53:54.656Z,24.90
2023-04-16T18:56:22.032Z,25.80
2023-04-16T18:58:49.602Z,25.07
2023-04-16T19:01:18.065Z,31.20
2023-04-16T19:03:45.589Z,24.60
2023-04-16T19:06:12.856Z,26.70
2023-04-16T19:08:40.082Z,28.13
2023-04-16T19:11:09.392Z,27.27
2023-04-16T19:13:38.471Z,27.47
2023-04-16T19:16:11.145Z,26.27
2023-04-16T19:18:39.287Z,24.67
2023-04-16T19:21:10.129Z,23.90
2023-04-16T19:23:37.588Z,20.97
2023-04-16T19:26:04.904Z,24.10
2023-04-16T19:28:32.085Z,20.30
2023-04-16T19:30:59.344Z,24.20
2023-04-16T19:33:26.518Z,27.53
2023-04-16T19:35:54.024Z,23.80
2023-04-16T19:38:21.230Z,33.47
2023-04-16T19:40:49.132Z,22.27
2023-04-16T19:43:16.338Z,23.03
2023-04-16T19:45:47.390Z,25.53
2023-04-16T19:48:14.844Z,31.83
2023-04-16T19:50:43.023Z,25.17
2023-04-16T19:53:10.736Z,36.67
2023-04-16T19:55:40.038Z,27.83
2023-04-16T19:58:09.761Z,31.83
2023-04-16T20:00:37.710Z,26.07
2023-04-16T20:03:05.591Z,22.53
2023-04-16T20:05:32.948Z,22.23
2023-04-16T20:08:00.349Z,21.37
2023-04-16T20:10:27.823Z,30.90
2023-04-16T20:12:55.144Z,26.60
2023-04-16T20:15:22.432Z,24.67
2023-04-16T20:17:49.720Z,26.60
2023-04-16T20:20:17.002Z,29.83
2023-04-16T20:22:44.303Z,25.73
2023-04-16T20:25:11.652Z,25.43
2023-04-16T20:27:39.219Z,29.37
2023-04-16T20:30:06.749Z,34.57
2023-04-16T20:32:34.103Z,31.83
2023-04-16T20:35:01.939Z,28.63
2023-04-16T20:37:29.315Z,28.93
2023-04-16T20:39:56.602Z,29.10
2023-04-16T20:42:26.252Z,36.10
2023-04-16T20:44:56.455Z,31.40
2023-04-16T20:47:24.082Z,27.93
2023-04-16T20:49:52.943Z,28.47
2023-04-16T20:52:20.521Z,30.97
2023-04-16T20:54:47.945Z,35.30
2023-04-16T20:57:15.135Z,36.63
2023-04-16T20:59:42.745Z,39.63
2023-04-16T21:02:09.998Z,34.73
2023-04-16T21:04:37.701Z,37.80
2023-04-16T21:07:05.360Z,34.33
2023-04-16T21:09:32.608Z,35.30
2023-04-16T21:11:59.856Z,35.87
2023-04-16T21:14:26.987Z,35.97
2023-04-16T21:16:54.850Z,37.03
2023-04-16T21:19:22.494Z,35.53
2023-04-16T21:21:49.722Z,40.80
2023-04-16T21:24:16.865Z,40.90
2023-04-16T21:26:44.080Z,41.57
2023-04-16T21:29:11.615Z,36.10
2023-04-16T21:31:39.284Z,39.23
2023-04-16T21:34:06.546Z,36.60
2023-04-16T21:36:34.152Z,47.57
2023-04-16T21:39:01.457Z,46.77
2023-04-16T21:41:28.786Z,42.83
2023-04-16T21:43:55.990Z,41.90
2023-04-16T21:46:23.301Z,35.70
2023-04-16T21:48:50.924Z,41.93
2023-04-16T21:51:18.144Z,46.07
2023-04-16T21:53:45.341Z,40.37
2023-04-16T21:56:12.456Z,40.93
2023-04-16T21:58:39.717Z,38.10
2023-04-16T22:01:08.891Z,50.13
2023-04-16T22:03:39.898Z,55.73
2023-04-16T22:06:07.748Z,53.40
2023-04-16T22:08:34.951Z,48.17
2023-04-16T22:11:03.779Z,45.43
2023-04-16T22:13:36.306Z,58.93
2023-04-16T22:16:03.912Z,63.53
2023-04-16T22:18:34.235Z,55.67
2023-04-16T22:21:02.045Z,55.37
2023-04-16T22:23:29.336Z,48.30
2023-04-16T22:25:57.109Z,51.70
2023-04-16T22:28:24.366Z,47.83
2023-04-16T22:30:52.200Z,44.27
2023-04-16T22:33:19.380Z,41.20
2023-04-16T22:35:46.613Z,52.40
2023-04-16T22:38:13.920Z,43.77
2023-04-16T22:40:41.180Z,43.27
2023-04-16T22:43:08.577Z,39.57
2023-04-16T22:45:37.627Z,57.27
2023-04-16T22:48:05.042Z,49.43
2023-04-16T22:50:32.330Z,42.70
2023-04-16T22:52:59.604Z,42.77
2023-04-16T22:55:26.754Z,49.53
2023-04-16T22:57:54.088Z,47.27
2023-04-16T23:00:21.412Z,44.77
2023-04-16T23:02:48.628Z,43.37
2023-04-16T23:05:16.032Z,49.23
2023-04-16T23:07:43.209Z,41.33
2023-04-16T23:10:10.476Z,40.30
2023-04-16T23:12:37.741Z,43.80
2023-04-16T23:15:06.424Z,40.90
2023-04-16T23:17:33.948Z,42.80
2023-04-16T23:20:01.185Z,39.53
2023-04-16T23:22:28.438Z,44.37
2023-04-16T23:24:55.582Z,43.33
2023-04-16T23:27:22.858Z,45.57
2023-04-16T23:29:50.084Z,42.43
2023-04-16T23:32:17.347Z,40.03
2023-04-16T23:34:44.660Z,44.20
2023-04-16T23:37:11.949Z,38.23
2023-04-16T23:39:39.400Z,43.30
2023-04-16T23:42:06.585Z,44.40
2023-04-16T23:44:33.903Z,42.77
2023-04-16T23:47:01.228Z,42.80
2023-04-16T23:49:28.537Z,36.30
2023-04-16T23:51:55.800Z,39.60
2023-04-16T23:54:22.966Z,41.80
2023-04-16T23:56:50.266Z,43.60
2023-04-16T23:59:17.584Z,57.43
